createdAt,value
2022-09-20T00:00:34.902Z,7.53
2022-09-20T00:03:44.691Z,7.53
2022-09-20T00:06:46.478Z,7.50
2022-09-20T00:09:48.188Z,7.45
2022-09-20T00:12:50.128Z,7.52
2022-09-20T00:15:51.834Z,7.50
2022-09-20T00:18:55.843Z,7.52
2022-09-20T00:21:57.565Z,7.43
2022-09-20T00:24:59.246Z,7.39
2022-09-20T00:28:01.263Z,7.37
2022-09-20T00:31:02.954Z,7.39
2022-09-20T00:34:23.190Z,7.35
2022-09-20T00:37:25.010Z,7.33
2022-09-20T00:40:30.406Z,7.29
2022-09-20T00:43:43.945Z,7.26
2022-09-20T00:46:46.066Z,7.21
2022-09-20T00:49:49.809Z,7.20
2022-09-20T00:53:07.859Z,7.20
2022-09-20T00:56:15.963Z,7.14
2022-09-20T00:59:37.530Z,7.21
2022-09-20T01:02:44.468Z,7.23
2022-09-20T01:05:46.263Z,7.19
2022-09-20T01:08:51.683Z,7.13
2022-09-20T01:11:56.161Z,7.09
2022-09-20T01:15:00.630Z,7.02
2022-09-20T01:18:03.480Z,7.10
2022-09-20T01:21:07.327Z,7.09
2022-09-20T01:24:25.034Z,7.10
2022-09-20T01:27:46.774Z,7.11
2022-09-20T01:30:52.184Z,7.12
2022-09-20T01:34:06.941Z,7.12
2022-09-20T01:37:31.779Z,7.02
2022-09-20T01:40:46.688Z,7.00
2022-09-20T01:43:55.249Z,6.97
2022-09-20T01:47:05.855Z,6.91
2022-09-20T01:50:22.768Z,6.86
2022-09-20T01:53:48.412Z,6.84
2022-09-20T01:57:08.466Z,6.84
2022-09-20T02:00:49.282Z,6.81
2022-09-20T02:04:17.304Z,6.79
2022-09-20T02:07:38.258Z,6.75
2022-09-20T02:11:14.164Z,6.68
2022-09-20T02:14:44.093Z,6.62
2022-09-20T02:18:00.743Z,6.65
2022-09-20T02:21:35.850Z,6.65
2022-09-20T02:24:56.195Z,6.71
2022-09-20T02:28:31.782Z,6.62
2022-09-20T02:31:58.374Z,6.63
2022-09-20T02:35:10.777Z,6.60
2022-09-20T02:38:18.586Z,6.58
2022-09-20T02:41:54.289Z,6.54
2022-09-20T02:45:34.116Z,6.45
2022-09-20T02:48:59.662Z,6.43
2022-09-20T02:52:16.830Z,6.38
2022-09-20T02:55:56.163Z,6.40
2022-09-20T02:59:14.040Z,6.44
2022-09-20T03:02:34.078Z,6.50
2022-09-20T03:05:47.545Z,6.56
2022-09-20T03:09:01.652Z,6.72
2022-09-20T03:12:23.041Z,6.87
2022-09-20T03:15:54.836Z,6.96
2022-09-20T03:19:44.566Z,7.02
2022-09-20T03:23:10.813Z,7.07
2022-09-20T03:26:48.719Z,7.05
2022-09-20T03:30:16.193Z,7.04
2022-09-20T03:33:37.416Z,7.00
2022-09-20T03:36:53.080Z,6.99
2022-09-20T03:40:32.506Z,6.98
2022-09-20T03:43:49.335Z,6.97
2022-09-20T03:47:03.801Z,7.01
2022-09-20T03:50:31.172Z,6.96
2022-09-20T03:53:39.995Z,6.98
2022-09-20T03:57:00.363Z,6.93
2022-09-20T04:00:35.460Z,6.95
2022-09-20T04:04:14.677Z,6.90
2022-09-20T04:07:39.061Z,6.94
2022-09-20T04:10:50.561Z,6.98
2022-09-20T04:14:04.458Z,7.07
2022-09-20T04:17:25.493Z,7.16
2022-09-20T04:20:46.218Z,7.19
2022-09-20T04:24:00.923Z,7.23
2022-09-20T04:27:11.833Z,7.23
2022-09-20T04:30:24.219Z,7.25
2022-09-20T04:33:35.075Z,7.27
2022-09-20T04:36:56.199Z,7.25
2022-09-20T04:40:09.903Z,7.15
2022-09-20T04:43:33.523Z,7.17
2022-09-20T04:46:41.319Z,7.18
2022-09-20T04:50:22.197Z,7.22
2022-09-20T04:53:57.405Z,7.24
2022-09-20T04:57:11.449Z,7.21
2022-09-20T05:00:21.465Z,7.18
2022-09-20T05:03:46.005Z,7.15
2022-09-20T05:07:26.424Z,7.20
2022-09-20T05:10:42.338Z,7.10
2022-09-20T05:14:03.540Z,7.16
2022-09-20T05:17:21.566Z,7.14
2022-09-20T05:20:26.352Z,7.17
2022-09-20T05:23:40.872Z,7.16
2022-09-20T05:27:04.410Z,7.22
2022-09-20T05:30:24.397Z,7.24
2022-09-20T05:33:53.786Z,7.20
2022-09-20T05:37:17.451Z,7.24
2022-09-20T05:40:39.503Z,7.37
2022-09-20T05:44:25.251Z,7.33
2022-09-20T05:47:44.946Z,7.38
2022-09-20T05:51:01.891Z,7.37
2022-09-20T05:54:27.605Z,7.50
2022-09-20T05:58:01.671Z,7.53
2022-09-20T06:01:21.539Z,7.60
2022-09-20T06:04:37.079Z,7.75
2022-09-20T06:08:03.721Z,7.79
2022-09-20T06:12:02.914Z,7.76
2022-09-20T06:15:15.220Z,7.83
2022-09-20T06:18:26.190Z,7.77
2022-09-20T06:21:50.769Z,7.77
2022-09-20T06:25:08.462Z,7.94
2022-09-20T06:28:21.466Z,8.02
2022-09-20T06:31:23.223Z,8.06
2022-09-20T06:34:27.004Z,8.02
2022-09-20T06:37:54.102Z,8.25
2022-09-20T06:41:14.760Z,8.25
2022-09-20T06:44:16.560Z,8.22
2022-09-20T06:47:18.770Z,8.16
2022-09-20T06:50:20.528Z,8.14
2022-09-20T06:53:32.555Z,8.19
2022-09-20T06:56:36.918Z,8.29
2022-09-20T06:59:38.754Z,8.36
2022-09-20T07:02:40.659Z,8.30
2022-09-20T07:05:42.429Z,8.44
2022-09-20T07:08:44.179Z,8.59
2022-09-20T07:11:46.223Z,8.78
2022-09-20T07:14:48.006Z,8.77
2022-09-20T07:17:51.094Z,8.58
2022-09-20T07:20:52.859Z,8.46
2022-09-20T07:23:54.756Z,8.28
2022-09-20T07:27:01.392Z,8.46
2022-09-20T07:30:03.414Z,8.71
2022-09-20T07:33:05.092Z,8.96
2022-09-20T07:36:07.074Z,8.79
2022-09-20T07:39:09.550Z,8.98
2022-09-20T07:42:12.070Z,9.13
2022-09-20T07:45:13.995Z,9.06
2022-09-20T07:48:16.195Z,9.18
2022-09-20T07:51:20.896Z,9.41
2022-09-20T07:54:22.711Z,9.37
2022-09-20T07:57:24.565Z,9.54
2022-09-20T08:00:26.666Z,9.31
2022-09-20T08:03:33.080Z,9.65
2022-09-20T08:06:39.556Z,9.84
2022-09-20T08:09:41.632Z,10.20
2022-09-20T08:16:08.174Z,9.98
2022-09-20T08:19:15.917Z,10.21
2022-09-20T08:22:17.743Z,10.40
2022-09-20T08:25:19.431Z,10.34
2022-09-20T08:28:21.197Z,10.47
2022-09-20T08:31:26.022Z,10.57
2022-09-20T08:34:28.049Z,11.07
2022-09-20T08:37:30.320Z,11.41
2022-09-20T08:40:32.380Z,11.33
2022-09-20T08:43:48.792Z,11.35
2022-09-20T08:47:01.706Z,11.41
2022-09-20T08:50:11.543Z,11.29
2022-09-20T08:53:20.922Z,11.47
2022-09-20T08:56:28.036Z,11.14
2022-09-20T08:59:31.428Z,11.47
2022-09-20T09:02:34.695Z,11.38
2022-09-20T09:05:40.907Z,11.67
2022-09-20T09:08:49.493Z,11.62
2022-09-20T09:11:53.055Z,11.67
2022-09-20T09:14:59.649Z,11.61
2022-09-20T09:18:01.545Z,11.60
2022-09-20T09:21:07.718Z,11.41
2022-09-20T09:24:20.508Z,11.77
2022-09-20T09:27:22.232Z,11.96
2022-09-20T09:30:26.480Z,11.97
2022-09-20T09:33:30.075Z,12.70
2022-09-20T09:36:32.910Z,12.82
2022-09-20T09:39:38.568Z,12.74
2022-09-20T09:42:56.244Z,12.51
2022-09-20T09:46:25.373Z,12.17
2022-09-20T09:49:36.031Z,12.18
2022-09-20T09:52:38.046Z,12.50
2022-09-20T09:55:52.725Z,12.66
2022-09-20T09:59:13.103Z,12.71
2022-09-20T10:02:36.178Z,13.00
2022-09-20T10:06:08.791Z,13.26
2022-09-20T10:09:30.738Z,13.95
2022-09-20T10:12:50.401Z,14.04
2022-09-20T10:16:07.645Z,13.35
2022-09-20T10:19:17.487Z,13.62
2022-09-20T10:22:29.113Z,13.63
2022-09-20T10:25:33.869Z,13.97
2022-09-20T10:28:54.152Z,14.17
2022-09-20T10:33:00.940Z,14.10
2022-09-20T10:36:25.413Z,13.97
2022-09-20T10:39:41.192Z,14.05
2022-09-20T10:43:09.473Z,13.65
2022-09-20T10:46:40.618Z,12.24
2022-09-20T10:50:07.970Z,11.67
2022-09-20T10:53:28.811Z,11.20
2022-09-20T10:56:37.542Z,11.54
2022-09-20T10:59:47.271Z,11.86
2022-09-20T11:03:16.484Z,12.40
2022-09-20T11:06:21.408Z,12.52
2022-09-20T11:09:29.565Z,12.57
2022-09-20T11:12:52.886Z,12.13
2022-09-20T11:16:02.989Z,12.48
2022-09-20T11:19:49.819Z,12.75
2022-09-20T11:23:00.033Z,13.18
2022-09-20T11:26:12.924Z,13.10
2022-09-20T11:29:26.295Z,12.87
2022-09-20T11:33:11.369Z,11.73
2022-09-20T11:36:24.817Z,11.05
2022-09-20T11:39:50.649Z,9.30
2022-09-20T11:42:53.386Z,8.38
2022-09-20T11:46:00.838Z,8.02
2022-09-20T11:49:13.575Z,7.99
2022-09-20T11:52:37.187Z,8.31
2022-09-20T11:55:59.062Z,8.40
2022-09-20T11:59:03.910Z,8.54
2022-09-20T12:02:35.586Z,8.47
2022-09-20T12:05:42.334Z,8.04
2022-09-20T12:08:50.615Z,8.39
2022-09-20T12:11:53.056Z,8.68
2022-09-20T12:15:00.323Z,9.44
2022-09-20T12:18:27.053Z,9.75
2022-09-20T12:21:29.043Z,10.31
2022-09-20T12:24:36.771Z,10.73
2022-09-20T12:27:38.412Z,11.00
2022-09-20T12:30:40.119Z,11.75
2022-09-20T12:34:02.143Z,11.28
2022-09-20T12:37:05.121Z,11.50
2022-09-20T12:40:16.046Z,12.16
2022-09-20T12:43:21.645Z,12.14
2022-09-20T12:46:32.767Z,11.80
2022-09-20T12:50:00.735Z,12.17
2022-09-20T12:53:05.443Z,11.43
2022-09-20T12:56:07.925Z,11.37
2022-09-20T12:59:24.272Z,11.16
2022-09-20T13:03:10.211Z,11.23
2022-09-20T13:06:16.394Z,11.29
2022-09-20T13:09:19.116Z,11.38
2022-09-20T13:12:21.270Z,11.11
2022-09-20T13:15:23.337Z,10.83
2022-09-20T13:18:27.927Z,10.72
2022-09-20T13:21:31.110Z,10.60
2022-09-20T13:24:42.094Z,10.22
2022-09-20T13:28:06.679Z,9.89
2022-09-20T13:31:20.393Z,8.97
2022-09-20T13:34:24.429Z,8.59
2022-09-20T13:37:26.198Z,8.21
2022-09-20T13:40:43.201Z,7.85
2022-09-20T13:43:49.963Z,8.16
2022-09-20T13:46:51.722Z,8.99
2022-09-20T13:49:59.878Z,9.28
2022-09-20T13:53:27.892Z,9.33
2022-09-20T13:56:35.748Z,9.01
2022-09-20T13:59:44.954Z,9.43
2022-09-20T14:02:49.375Z,9.46
2022-09-20T14:05:59.342Z,9.29
2022-09-20T14:09:08.401Z,9.42
2022-09-20T14:12:14.069Z,9.08
2022-09-20T14:15:15.956Z,8.60
2022-09-20T14:18:20.102Z,8.77
2022-09-20T14:21:25.513Z,8.85
2022-09-20T14:24:35.480Z,8.70
2022-09-20T14:27:37.279Z,9.03
2022-09-20T14:30:38.950Z,9.31
2022-09-20T14:33:54.975Z,9.30
2022-09-20T14:37:07.065Z,9.49
2022-09-20T14:40:17.650Z,9.13
2022-09-20T14:43:25.987Z,9.09
2022-09-20T14:46:38.918Z,9.32
2022-09-20T14:49:44.369Z,9.37
2022-09-20T14:52:46.194Z,9.68
2022-09-20T14:56:11.719Z,9.57
2022-09-20T14:59:28.572Z,9.62
2022-09-20T15:02:30.235Z,9.69
2022-09-20T15:05:32.305Z,9.27
2022-09-20T15:08:35.455Z,9.51
2022-09-20T15:11:37.194Z,9.27
2022-09-20T15:14:40.872Z,9.36
2022-09-20T15:17:43.030Z,9.58
2022-09-20T15:20:44.732Z,9.40
2022-09-20T15:23:46.484Z,9.80
2022-09-20T15:26:48.786Z,9.77
2022-09-20T15:29:50.618Z,9.81
2022-09-20T15:32:52.715Z,9.89
2022-09-20T15:35:54.477Z,9.87
2022-09-20T15:38:56.456Z,9.61
2022-09-20T15:41:58.201Z,9.45
2022-09-20T15:44:59.902Z,9.44
2022-09-20T15:48:03.089Z,9.41
2022-09-20T15:51:07.479Z,9.42
2022-09-20T15:54:15.012Z,9.53
2022-09-20T15:57:17.645Z,9.39
2022-09-20T16:00:19.863Z,9.33
2022-09-20T16:03:28.895Z,9.21
2022-09-20T16:06:32.074Z,9.06
2022-09-20T16:09:35.828Z,9.07
2022-09-20T16:12:37.676Z,8.88
2022-09-20T16:15:39.455Z,8.81
2022-09-20T16:19:00.172Z,8.52
2022-09-20T16:22:01.958Z,8.48
2022-09-20T16:25:05.993Z,8.58
2022-09-20T16:28:07.714Z,8.30
2022-09-20T16:31:32.904Z,8.02
2022-09-20T16:34:36.695Z,8.02
2022-09-20T16:37:39.394Z,7.81
2022-09-20T16:40:41.373Z,7.83
2022-09-20T16:43:43.076Z,7.54
2022-09-20T16:46:47.540Z,7.40
2022-09-20T16:49:53.640Z,7.11
2022-09-20T16:52:55.853Z,6.96
2022-09-20T16:55:57.551Z,6.76
2022-09-20T16:59:01.114Z,6.68
2022-09-20T17:02:02.886Z,6.58
2022-09-20T17:05:05.384Z,6.53
2022-09-20T17:08:07.121Z,6.53
2022-09-20T17:11:11.539Z,6.49
2022-09-20T17:14:15.003Z,6.40
2022-09-20T17:17:17.240Z,6.32
2022-09-20T17:20:18.983Z,6.24
2022-09-20T17:23:21.169Z,6.22
2022-09-20T17:26:24.646Z,6.15
2022-09-20T17:29:27.626Z,6.18
2022-09-20T17:32:29.406Z,6.13
2022-09-20T17:35:31.387Z,6.10
2022-09-20T17:38:34.670Z,6.02
2022-09-20T17:41:37.413Z,5.99
2022-09-20T17:44:39.166Z,5.91
2022-09-20T17:47:42.147Z,5.88
2022-09-20T17:50:54.315Z,5.83
2022-09-20T17:53:56.416Z,5.91
2022-09-20T17:56:58.132Z,5.90
2022-09-20T17:59:59.844Z,5.89
2022-09-20T18:03:04.756Z,5.87
2022-09-20T18:06:23.137Z,5.75
2022-09-20T18:09:27.139Z,5.73
2022-09-20T18:12:29.627Z,5.77
2022-09-20T18:15:32.135Z,5.67
2022-09-20T18:18:33.904Z,5.70
2022-09-20T18:21:37.498Z,5.68
2022-09-20T18:24:39.399Z,5.61
2022-09-20T18:27:42.161Z,5.55
2022-09-20T18:30:46.285Z,5.46
2022-09-20T18:33:48.030Z,5.38
2022-09-20T18:36:55.030Z,5.28
2022-09-20T18:39:56.713Z,5.19
2022-09-20T18:43:04.519Z,5.12
2022-09-20T18:46:06.660Z,5.03
2022-09-20T18:49:09.622Z,4.99
2022-09-20T18:52:13.098Z,4.92
2022-09-20T18:55:14.948Z,4.86
2022-09-20T18:58:20.760Z,4.80
2022-09-20T19:01:28.547Z,4.78
2022-09-20T19:04:39.068Z,4.74
2022-09-20T19:07:45.807Z,4.71
2022-09-20T19:11:01.234Z,4.67
2022-09-20T19:14:22.022Z,4.59
2022-09-20T19:17:40.880Z,4.55
2022-09-20T19:20:54.188Z,4.51
2022-09-20T19:24:33.344Z,4.49
2022-09-20T19:27:35.396Z,4.56
2022-09-20T19:30:39.479Z,4.56
2022-09-20T19:33:41.472Z,4.63
2022-09-20T19:36:49.143Z,4.62
2022-09-20T19:40:15.342Z,4.67
2022-09-20T19:43:47.783Z,4.64
2022-09-20T19:47:24.901Z,4.69
2022-09-20T19:50:36.180Z,4.86
2022-09-20T19:53:39.294Z,4.93
2022-09-20T19:56:44.084Z,5.02
2022-09-20T19:59:46.428Z,5.07
2022-09-20T20:02:49.088Z,5.10
2022-09-20T20:06:08.310Z,5.16
2022-09-20T20:09:23.387Z,5.21
2022-09-20T20:12:34.139Z,5.24
2022-09-20T20:15:50.606Z,5.21
2022-09-20T20:19:21.114Z,5.14
2022-09-20T20:23:08.657Z,5.14
2022-09-20T20:26:19.434Z,5.08
2022-09-20T20:29:21.169Z,5.02
2022-09-20T20:32:23.040Z,4.99
2022-09-20T20:35:25.849Z,4.99
2022-09-20T20:38:28.887Z,5.02
2022-09-20T20:41:31.919Z,5.06
2022-09-20T20:44:37.785Z,5.04
2022-09-20T20:47:44.092Z,5.03
2022-09-20T20:50:45.839Z,5.04
2022-09-20T20:53:52.926Z,5.05
2022-09-20T20:56:54.673Z,5.01
2022-09-20T20:59:56.400Z,4.98
2022-09-20T21:02:58.708Z,4.94
2022-09-20T21:06:00.446Z,4.97
2022-09-20T21:09:04.356Z,4.93
2022-09-20T21:12:06.391Z,4.94
2022-09-20T21:15:08.480Z,4.91
2022-09-20T21:18:10.427Z,4.91
2022-09-20T21:21:33.539Z,4.86
2022-09-20T21:24:35.191Z,4.81
2022-09-20T21:27:37.124Z,4.84
2022-09-20T21:30:38.828Z,4.84
2022-09-20T21:33:42.504Z,4.91
2022-09-20T21:36:44.958Z,4.87
2022-09-20T21:39:46.962Z,4.85
2022-09-20T21:42:48.640Z,4.82
2022-09-20T21:45:50.647Z,4.81
2022-09-20T21:48:52.399Z,4.75
2022-09-20T21:51:54.231Z,4.76
2022-09-20T21:54:55.972Z,4.66
2022-09-20T21:57:57.868Z,4.55
2022-09-20T22:01:26.821Z,4.54
2022-09-20T22:04:29.192Z,4.46
2022-09-20T22:07:30.860Z,4.39
2022-09-20T22:10:32.758Z,4.31
2022-09-20T22:13:35.357Z,4.28
2022-09-20T22:16:38.880Z,4.25
2022-09-20T22:19:40.564Z,4.20
2022-09-20T22:22:42.352Z,4.14
2022-09-20T22:25:44.124Z,4.10
2022-09-20T22:28:45.821Z,4.12
2022-09-20T22:31:50.121Z,4.14
2022-09-20T22:34:51.848Z,4.16
2022-09-20T22:37:53.789Z,4.12
2022-09-20T22:40:57.354Z,4.27
2022-09-20T22:43:59.305Z,4.27
2022-09-20T22:47:00.964Z,4.25
2022-09-20T22:50:02.774Z,4.21
2022-09-20T22:53:04.490Z,4.24
2022-09-20T22:56:11.855Z,4.23
2022-09-20T22:59:14.843Z,4.16
2022-09-20T23:02:16.537Z,4.08
2022-09-20T23:05:18.225Z,4.01
2022-09-20T23:08:22.439Z,3.99
2022-09-20T23:11:24.940Z,3.92
2022-09-20T23:14:26.872Z,3.83
2022-09-20T23:17:28.529Z,3.77
2022-09-20T23:20:30.320Z,3.74
2022-09-20T23:23:32.165Z,3.71
2022-09-20T23:26:36.763Z,3.68
2022-09-20T23:29:38.508Z,3.79
2022-09-20T23:32:40.781Z,3.79
2022-09-20T23:35:46.463Z,3.81
2022-09-20T23:38:48.904Z,3.78
2022-09-20T23:41:51.451Z,3.71
2022-09-20T23:44:53.280Z,3.68
2022-09-20T23:47:54.961Z,3.70
2022-09-20T23:50:56.695Z,3.73
2022-09-20T23:53:58.712Z,3.76
2022-09-20T23:57:00.455Z,3.76
